createdAt,value
2023-04-30T00:00:40.216Z,24.10
2023-04-30T00:03:08.402Z,23.33
2023-04-30T00:05:37.388Z,22.57
2023-04-30T00:08:06.885Z,23.13
2023-04-30T00:10:34.968Z,21.67
2023-04-30T00:13:03.047Z,23.47
2023-04-30T00:15:31.222Z,23.30
2023-04-30T00:17:59.310Z,22.30
2023-04-30T00:20:27.455Z,24.07
2023-04-30T00:22:55.787Z,22.30
2023-04-30T00:25:25.599Z,20.80
2023-04-30T00:27:53.864Z,22.43
2023-04-30T00:30:21.935Z,23.97
2023-04-30T00:32:50.073Z,24.00
2023-04-30T00:35:18.499Z,23.80
2023-04-30T00:37:46.588Z,21.87
2023-04-30T00:40:15.044Z,23.47
2023-04-30T00:42:44.486Z,21.20
2023-04-30T00:45:12.906Z,21.10
2023-04-30T00:47:41.736Z,20.70
2023-04-30T00:50:11.271Z,21.47
2023-04-30T00:52:39.527Z,20.80
2023-04-30T00:55:08.493Z,21.60
2023-04-30T00:57:37.853Z,21.80
2023-04-30T01:00:11.074Z,21.00
2023-04-30T01:02:39.553Z,22.40
2023-04-30T01:05:08.820Z,20.37
2023-04-30T01:07:38.978Z,23.60
2023-04-30T01:10:08.407Z,22.33
2023-04-30T01:12:42.442Z,19.00
2023-04-30T01:15:19.581Z,21.23
2023-04-30T01:17:56.756Z,22.10
2023-04-30T01:20:27.658Z,22.40
2023-04-30T01:23:01.864Z,21.97
2023-04-30T01:25:53.391Z,20.67
2023-04-30T01:28:24.851Z,20.57
2023-04-30T01:30:53.113Z,18.20
2023-04-30T01:33:21.352Z,19.23
2023-04-30T01:36:09.737Z,20.03
2023-04-30T01:39:00.900Z,21.00
2023-04-30T01:41:34.860Z,21.60
2023-04-30T01:44:25.213Z,20.77
2023-04-30T01:47:00.162Z,21.40
2023-04-30T01:49:38.189Z,21.20
2023-04-30T01:52:14.666Z,22.03
2023-04-30T01:54:50.232Z,19.27
2023-04-30T01:57:24.282Z,20.50
2023-04-30T01:59:54.452Z,22.23
2023-04-30T02:02:22.717Z,20.50
2023-04-30T02:04:50.886Z,19.30
2023-04-30T02:07:30.348Z,19.30
2023-04-30T02:09:58.461Z,22.30
2023-04-30T02:12:27.742Z,21.60
2023-04-30T02:14:57.216Z,24.67
2023-04-30T02:17:25.281Z,23.13
2023-04-30T02:19:53.614Z,24.10
2023-04-30T02:22:21.916Z,22.53
2023-04-30T02:24:50.064Z,23.03
2023-04-30T02:27:18.305Z,21.40
2023-04-30T02:29:46.561Z,22.00
2023-04-30T02:32:16.020Z,24.73
2023-04-30T02:34:44.189Z,25.47
2023-04-30T02:37:12.375Z,24.20
2023-04-30T02:39:41.215Z,24.17
2023-04-30T02:42:09.307Z,23.80
2023-04-30T02:44:37.364Z,24.97
2023-04-30T02:47:05.444Z,26.33
2023-04-30T02:49:35.042Z,25.73
2023-04-30T02:52:03.218Z,26.20
2023-04-30T02:54:31.269Z,27.33
2023-04-30T02:56:59.353Z,27.40
2023-04-30T02:59:27.485Z,27.30
2023-04-30T03:01:55.560Z,27.70
2023-04-30T03:04:23.602Z,28.20
2023-04-30T03:06:53.047Z,28.50
2023-04-30T03:09:21.162Z,28.20
2023-04-30T03:11:49.362Z,27.80
2023-04-30T03:14:17.409Z,28.83
2023-04-30T03:16:45.583Z,27.10
2023-04-30T03:19:13.714Z,28.30
2023-04-30T03:21:41.903Z,28.60
2023-04-30T03:24:11.367Z,26.60
2023-04-30T03:26:39.497Z,28.80
2023-04-30T03:29:07.737Z,31.03
2023-04-30T03:31:35.858Z,30.50
2023-04-30T03:34:03.945Z,32.40
2023-04-30T03:36:32.553Z,32.13
2023-04-30T03:39:00.846Z,32.67
2023-04-30T03:41:30.267Z,31.70
2023-04-30T03:43:58.387Z,32.60
2023-04-30T03:46:26.487Z,30.80
2023-04-30T03:48:54.571Z,30.87
2023-04-30T03:51:23.451Z,32.23
2023-04-30T03:53:51.506Z,33.57
2023-04-30T03:56:19.650Z,31.50
2023-04-30T03:58:49.157Z,29.77
2023-04-30T04:01:17.330Z,30.90
2023-04-30T04:03:45.563Z,29.20
2023-04-30T04:06:13.696Z,30.20
2023-04-30T04:08:43.342Z,30.03
2023-04-30T04:11:11.525Z,29.20
2023-04-30T04:13:39.607Z,30.03
2023-04-30T04:16:09.812Z,31.27
2023-04-30T04:18:37.929Z,29.27
2023-04-30T04:21:06.739Z,32.90
2023-04-30T04:23:34.818Z,31.20
2023-04-30T04:26:03.253Z,31.17
2023-04-30T04:28:32.008Z,31.40
2023-04-30T04:31:00.103Z,30.33
2023-04-30T04:33:29.567Z,30.23
2023-04-30T04:35:57.999Z,29.10
2023-04-30T04:38:26.867Z,29.90
2023-04-30T04:40:55.289Z,27.77
2023-04-30T04:43:23.361Z,30.27
2023-04-30T04:45:52.273Z,28.97
2023-04-30T04:48:20.350Z,29.37
2023-04-30T04:50:49.794Z,28.93
2023-04-30T04:53:17.852Z,26.57
2023-04-30T04:55:45.902Z,28.40
2023-04-30T04:58:13.988Z,26.97
2023-04-30T05:00:42.201Z,28.83
2023-04-30T05:03:10.409Z,28.37
2023-04-30T05:05:38.658Z,31.80
2023-04-30T05:08:08.180Z,29.00
2023-04-30T05:10:36.338Z,28.37
2023-04-30T05:13:04.700Z,26.70
2023-04-30T05:15:32.757Z,29.13
2023-04-30T05:18:00.910Z,29.60
2023-04-30T05:20:29.006Z,29.40
2023-04-30T05:22:57.060Z,27.93
2023-04-30T05:25:26.615Z,27.80
2023-04-30T05:27:54.685Z,26.90
2023-04-30T05:30:22.727Z,30.70
2023-04-30T05:32:52.705Z,30.87
2023-04-30T05:35:21.235Z,25.97
2023-04-30T05:37:49.468Z,25.90
2023-04-30T05:40:17.851Z,26.17
2023-04-30T05:42:47.294Z,26.30
2023-04-30T05:45:17.231Z,25.47
2023-04-30T05:47:45.625Z,25.97
2023-04-30T05:50:13.925Z,26.00
2023-04-30T05:52:42.028Z,27.13
2023-04-30T05:55:11.049Z,27.90
2023-04-30T05:57:39.305Z,27.30
2023-04-30T06:00:10.293Z,27.80
2023-04-30T06:02:38.522Z,26.57
2023-04-30T06:05:08.952Z,29.90
2023-04-30T06:07:37.173Z,25.87
2023-04-30T06:10:05.977Z,26.90
2023-04-30T06:12:34.057Z,26.00
2023-04-30T06:15:02.327Z,27.20
2023-04-30T06:17:31.868Z,27.57
2023-04-30T06:20:02.564Z,26.70
2023-04-30T06:22:31.692Z,27.63
2023-04-30T06:24:59.823Z,26.07
2023-04-30T06:27:28.881Z,25.90
2023-04-30T06:29:57.154Z,25.97
2023-04-30T06:32:25.310Z,26.17
2023-04-30T06:34:54.792Z,24.77
2023-04-30T06:37:22.908Z,25.53
2023-04-30T06:39:51.651Z,23.30
2023-04-30T06:42:19.745Z,25.33
2023-04-30T06:44:47.811Z,26.20
2023-04-30T06:47:15.910Z,23.80
2023-04-30T06:49:43.975Z,27.33
2023-04-30T06:52:13.414Z,26.30
2023-04-30T06:54:42.947Z,26.70
2023-04-30T06:57:11.039Z,26.10
2023-04-30T06:59:39.391Z,26.93
2023-04-30T07:02:07.727Z,27.10
2023-04-30T07:04:35.920Z,24.77
2023-04-30T07:07:04.421Z,23.63
2023-04-30T07:09:33.878Z,24.10
2023-04-30T07:12:02.111Z,24.27
2023-04-30T07:14:30.188Z,23.37
2023-04-30T07:16:58.246Z,22.70
2023-04-30T07:19:27.032Z,21.63
2023-04-30T07:21:55.078Z,26.03
2023-04-30T07:24:23.109Z,23.13
2023-04-30T07:26:52.689Z,24.80
2023-04-30T07:29:20.810Z,21.73
2023-04-30T07:31:48.894Z,24.87
2023-04-30T07:34:17.013Z,22.00
2023-04-30T07:36:45.075Z,19.23
2023-04-30T07:39:13.897Z,18.27
2023-04-30T07:41:42.003Z,17.80
2023-04-30T07:44:12.040Z,18.67
2023-04-30T07:46:40.283Z,15.27
2023-04-30T07:49:08.500Z,16.33
2023-04-30T07:51:37.422Z,21.00
2023-04-30T07:54:06.050Z,20.43
2023-04-30T07:56:34.116Z,15.03
2023-04-30T07:59:02.186Z,16.30
2023-04-30T08:01:31.855Z,14.67
2023-04-30T08:04:00.085Z,15.93
2023-04-30T08:06:29.049Z,14.57
2023-04-30T08:08:57.274Z,16.00
2023-04-30T08:11:25.433Z,15.30
2023-04-30T08:13:53.956Z,56.80
2023-04-30T08:16:22.123Z,21.73
2023-04-30T08:18:51.746Z,16.67
2023-04-30T08:21:20.033Z,18.87
2023-04-30T08:23:48.154Z,17.07
2023-04-30T08:26:16.234Z,17.10
2023-04-30T08:28:44.319Z,14.97
2023-04-30T08:31:13.330Z,13.43
2023-04-30T08:33:41.465Z,13.70
2023-04-30T08:36:11.116Z,15.80
2023-04-30T08:38:39.174Z,14.77
2023-04-30T08:41:12.222Z,14.30
2023-04-30T08:43:40.786Z,14.50
2023-04-30T08:46:09.232Z,14.07
2023-04-30T08:48:37.503Z,16.13
2023-04-30T08:51:06.072Z,15.07
2023-04-30T08:53:37.434Z,13.67
2023-04-30T08:56:05.920Z,14.27
2023-04-30T08:58:34.158Z,13.47
2023-04-30T09:01:02.893Z,12.40
2023-04-30T09:03:32.410Z,45.20
2023-04-30T09:06:00.644Z,12.53
2023-04-30T09:08:48.075Z,13.40
2023-04-30T09:11:26.914Z,11.57
2023-04-30T09:14:01.022Z,11.23
2023-04-30T09:16:31.572Z,12.07
2023-04-30T09:19:00.424Z,9.90
2023-04-30T09:21:35.747Z,10.07
2023-04-30T09:24:06.324Z,10.30
2023-04-30T09:26:35.799Z,10.60
2023-04-30T09:29:08.112Z,9.23
2023-04-30T09:31:37.186Z,11.23
2023-04-30T09:34:06.228Z,10.83
2023-04-30T09:36:34.651Z,9.27
2023-04-30T09:39:14.235Z,9.97
2023-04-30T09:41:43.558Z,11.53
2023-04-30T09:44:28.319Z,11.10
2023-04-30T09:46:57.993Z,12.73
2023-04-30T09:49:26.489Z,13.83
2023-04-30T09:51:57.955Z,11.63
2023-04-30T09:54:29.519Z,13.30
2023-04-30T09:56:59.175Z,11.93
2023-04-30T09:59:36.614Z,11.90
2023-04-30T10:02:06.971Z,13.33
2023-04-30T10:04:36.514Z,12.73
2023-04-30T10:07:09.650Z,12.23
2023-04-30T10:09:44.850Z,11.77
2023-04-30T10:12:16.903Z,11.87
2023-04-30T10:14:51.137Z,12.70
2023-04-30T10:17:20.133Z,12.67
2023-04-30T10:19:50.848Z,11.23
2023-04-30T10:22:19.401Z,11.40
2023-04-30T10:24:49.525Z,13.00
2023-04-30T10:27:18.010Z,10.67
2023-04-30T10:29:47.472Z,12.53
2023-04-30T10:32:16.818Z,11.80
2023-04-30T10:34:54.478Z,18.70
2023-04-30T10:37:32.224Z,17.10
2023-04-30T10:40:02.263Z,12.87
2023-04-30T10:42:30.425Z,13.23
2023-04-30T10:44:58.545Z,13.80
2023-04-30T10:47:30.901Z,14.90
2023-04-30T10:50:04.242Z,21.40
2023-04-30T10:52:32.364Z,12.13
2023-04-30T10:55:06.253Z,14.70
2023-04-30T10:57:42.789Z,12.43
2023-04-30T11:00:20.979Z,13.43
2023-04-30T11:02:49.985Z,11.93
2023-04-30T11:05:19.808Z,12.37
2023-04-30T11:07:50.546Z,13.23
2023-04-30T11:10:23.741Z,12.17
2023-04-30T11:12:53.593Z,12.03
2023-04-30T11:15:25.483Z,12.20
2023-04-30T11:17:58.264Z,12.30
2023-04-30T11:20:27.501Z,9.80
2023-04-30T11:23:19.686Z,11.57
2023-04-30T11:25:57.762Z,11.43
2023-04-30T11:28:27.325Z,12.93
2023-04-30T11:30:57.054Z,13.50
2023-04-30T11:33:26.262Z,11.83
2023-04-30T11:35:56.102Z,10.33
2023-04-30T11:38:27.311Z,9.70
2023-04-30T11:40:57.758Z,8.10
2023-04-30T11:43:27.337Z,6.40
2023-04-30T11:46:03.242Z,7.00
2023-04-30T11:48:35.680Z,6.57
2023-04-30T11:51:15.486Z,5.40
2023-04-30T11:53:43.672Z,6.27
2023-04-30T11:56:13.116Z,6.67
2023-04-30T11:58:41.334Z,5.97
2023-04-30T12:01:10.964Z,4.83
2023-04-30T12:03:43.935Z,5.60
2023-04-30T12:06:13.124Z,4.30
2023-04-30T12:08:43.102Z,4.70
2023-04-30T12:11:26.060Z,4.33
2023-04-30T12:13:55.611Z,3.83
2023-04-30T12:16:25.232Z,4.30
2023-04-30T12:18:53.439Z,4.37
2023-04-30T12:21:23.033Z,3.70
2023-04-30T12:23:51.566Z,4.70
2023-04-30T12:26:19.617Z,4.57
2023-04-30T12:28:50.489Z,3.83
2023-04-30T12:31:19.212Z,4.50
2023-04-30T12:33:56.445Z,4.20
2023-04-30T12:36:32.728Z,3.80
2023-04-30T12:39:18.727Z,5.40
2023-04-30T12:41:48.818Z,4.40
2023-04-30T12:44:22.310Z,4.97
2023-04-30T12:46:53.479Z,4.10
2023-04-30T12:49:27.282Z,4.33
2023-04-30T12:52:01.297Z,5.13
2023-04-30T12:54:30.649Z,4.03
2023-04-30T12:57:03.553Z,4.87
2023-04-30T12:59:34.215Z,4.80
2023-04-30T13:02:12.838Z,4.50
2023-04-30T13:04:42.037Z,4.00
2023-04-30T13:07:10.325Z,4.67
2023-04-30T13:09:39.484Z,4.17
2023-04-30T13:12:07.772Z,5.10
2023-04-30T13:14:37.301Z,5.13
2023-04-30T13:17:07.521Z,5.07
2023-04-30T13:19:35.681Z,5.43
2023-04-30T13:22:03.817Z,4.80
2023-04-30T13:24:32.193Z,4.50
2023-04-30T13:27:00.369Z,5.63
2023-04-30T13:29:28.425Z,4.30
2023-04-30T13:31:58.217Z,5.10
2023-04-30T13:34:26.281Z,5.20
2023-04-30T13:36:54.745Z,5.87
2023-04-30T13:39:23.213Z,4.50
2023-04-30T13:41:51.313Z,4.33
2023-04-30T13:44:19.396Z,4.73
2023-04-30T13:46:47.484Z,5.20
2023-04-30T13:49:17.052Z,5.07
2023-04-30T13:51:45.120Z,5.30
2023-04-30T13:54:13.189Z,5.00
2023-04-30T13:56:41.310Z,5.30
2023-04-30T13:59:09.670Z,5.17
2023-04-30T14:01:37.774Z,6.27
2023-04-30T14:04:06.148Z,5.20
2023-04-30T14:06:36.939Z,4.93
2023-04-30T14:09:05.213Z,7.00
2023-04-30T14:11:33.306Z,5.20
2023-04-30T14:14:01.383Z,4.80
2023-04-30T14:16:30.454Z,4.27
2023-04-30T14:18:58.711Z,5.93
2023-04-30T14:21:27.569Z,4.90
2023-04-30T14:23:56.996Z,5.37
2023-04-30T14:26:25.103Z,6.47
2023-04-30T14:28:53.358Z,6.00
2023-04-30T14:31:21.425Z,5.90
2023-04-30T14:33:49.530Z,5.57
2023-04-30T14:36:17.662Z,5.30
2023-04-30T14:38:45.706Z,5.60
2023-04-30T14:41:15.356Z,5.40
2023-04-30T14:43:43.420Z,5.83
2023-04-30T14:46:11.813Z,5.07
2023-04-30T14:48:40.148Z,4.77
2023-04-30T14:51:08.285Z,5.80
2023-04-30T14:53:37.430Z,5.40
2023-04-30T14:56:07.213Z,5.83
2023-04-30T14:58:36.663Z,5.40
2023-04-30T15:01:04.964Z,5.60
2023-04-30T15:03:33.318Z,5.90
2023-04-30T15:06:01.583Z,7.37
2023-04-30T15:08:29.769Z,5.63
2023-04-30T15:10:58.512Z,5.90
2023-04-30T15:13:26.659Z,5.47
2023-04-30T15:15:56.233Z,4.83
2023-04-30T15:18:24.347Z,5.43
2023-04-30T15:20:52.419Z,4.43
2023-04-30T15:23:20.930Z,5.33
2023-04-30T15:25:49.180Z,4.73
2023-04-30T15:28:17.327Z,4.40
2023-04-30T15:30:45.381Z,5.07
2023-04-30T15:33:14.828Z,4.23
2023-04-30T15:35:43.057Z,5.17
2023-04-30T15:38:11.098Z,5.83
2023-04-30T15:40:39.149Z,5.07
2023-04-30T15:43:07.935Z,4.53
2023-04-30T15:45:36.053Z,5.20
2023-04-30T15:48:04.375Z,5.07
2023-04-30T15:50:33.951Z,4.37
2023-04-30T15:53:02.206Z,4.90
2023-04-30T15:55:30.796Z,4.83
2023-04-30T15:57:58.845Z,4.53
2023-04-30T16:00:27.273Z,5.10
2023-04-30T16:02:55.608Z,7.07
2023-04-30T16:05:23.897Z,4.27
2023-04-30T16:07:53.527Z,6.53
2023-04-30T16:10:22.155Z,4.90
2023-04-30T16:12:50.241Z,4.23
2023-04-30T16:15:18.533Z,3.97
2023-04-30T16:17:46.570Z,4.73
2023-04-30T16:20:15.228Z,3.53
2023-04-30T16:22:43.488Z,4.33
2023-04-30T16:25:13.110Z,4.47
2023-04-30T16:27:41.271Z,6.60
2023-04-30T16:30:10.559Z,4.50
2023-04-30T16:32:38.696Z,3.67
2023-04-30T16:35:07.612Z,5.60
2023-04-30T16:37:35.880Z,3.80
2023-04-30T16:40:06.220Z,3.50
2023-04-30T16:42:36.200Z,3.37
2023-04-30T16:45:04.422Z,3.93
2023-04-30T16:47:32.582Z,3.47
2023-04-30T16:50:00.750Z,3.67
2023-04-30T16:52:29.676Z,3.30
2023-04-30T16:54:57.762Z,5.60
2023-04-30T16:57:26.146Z,3.53
2023-04-30T16:59:55.774Z,3.67
2023-04-30T17:02:24.347Z,4.30
2023-04-30T17:04:52.610Z,3.90
2023-04-30T17:07:20.731Z,3.53
2023-04-30T17:09:48.838Z,3.43
2023-04-30T17:12:16.950Z,3.80
2023-04-30T17:14:45.045Z,3.73
2023-04-30T17:17:14.516Z,3.80
2023-04-30T17:19:42.585Z,3.27
2023-04-30T17:22:10.683Z,3.27
2023-04-30T17:24:38.782Z,3.40
2023-04-30T17:27:06.861Z,3.57
2023-04-30T17:29:35.043Z,4.30
2023-04-30T17:32:03.943Z,4.30
2023-04-30T17:34:33.410Z,3.70
2023-04-30T17:37:01.468Z,3.73
2023-04-30T17:39:32.396Z,3.70
2023-04-30T17:42:00.855Z,3.93
2023-04-30T17:44:31.393Z,3.80
2023-04-30T17:46:59.453Z,4.00
2023-04-30T17:49:28.564Z,4.50
2023-04-30T17:51:59.046Z,4.60
2023-04-30T17:54:27.221Z,4.07
2023-04-30T17:56:55.589Z,4.63
2023-04-30T17:59:23.722Z,4.20
2023-04-30T18:01:51.894Z,3.60
2023-04-30T18:04:20.871Z,4.10
2023-04-30T18:06:49.236Z,3.60
2023-04-30T18:09:18.983Z,3.83
2023-04-30T18:11:47.043Z,3.40
2023-04-30T18:14:15.119Z,4.00
2023-04-30T18:16:43.321Z,4.13
2023-04-30T18:19:11.483Z,4.07
2023-04-30T18:21:39.650Z,5.03
2023-04-30T18:24:07.692Z,4.00
2023-04-30T18:26:37.539Z,4.30
2023-04-30T18:29:06.123Z,3.80
2023-04-30T18:31:36.681Z,4.47
2023-04-30T18:34:04.964Z,4.40
2023-04-30T18:36:33.138Z,4.50
2023-04-30T18:39:01.182Z,4.43
2023-04-30T18:41:29.308Z,3.57
2023-04-30T18:43:58.856Z,4.70
2023-04-30T18:46:27.110Z,5.10
2023-04-30T18:48:56.269Z,4.83
2023-04-30T18:51:24.323Z,4.50
2023-04-30T18:53:52.502Z,4.93
2023-04-30T18:56:22.018Z,4.27
2023-04-30T18:58:50.447Z,5.20
2023-04-30T19:01:21.517Z,4.60
2023-04-30T19:03:49.805Z,5.70
2023-04-30T19:06:18.022Z,5.30
2023-04-30T19:08:46.868Z,4.50
2023-04-30T19:11:15.111Z,4.50
2023-04-30T19:13:43.175Z,4.67
2023-04-30T19:16:11.384Z,5.60
2023-04-30T19:18:40.974Z,5.20
2023-04-30T19:21:09.463Z,4.80
2023-04-30T19:23:38.486Z,5.40
2023-04-30T19:26:06.592Z,5.27
2023-04-30T19:28:34.648Z,5.53
2023-04-30T19:31:03.984Z,4.50
2023-04-30T19:33:36.621Z,5.33
2023-04-30T19:36:06.808Z,5.00
2023-04-30T19:38:34.887Z,5.63
2023-04-30T19:41:02.937Z,5.83
2023-04-30T19:43:31.564Z,5.40
2023-04-30T19:46:01.959Z,5.63
2023-04-30T19:48:31.092Z,6.43
2023-04-30T19:50:59.190Z,6.60
2023-04-30T19:53:29.141Z,6.30
2023-04-30T19:55:57.238Z,5.77
2023-04-30T19:58:25.288Z,6.47
2023-04-30T20:00:53.527Z,6.53
2023-04-30T20:03:25.254Z,6.10
2023-04-30T20:05:54.124Z,6.10
2023-04-30T20:08:22.837Z,6.00
2023-04-30T20:10:52.293Z,5.60
2023-04-30T20:13:21.054Z,6.47
2023-04-30T20:15:49.590Z,6.67
2023-04-30T20:18:17.684Z,6.80
2023-04-30T20:20:46.063Z,6.27
2023-04-30T20:23:16.130Z,6.10
2023-04-30T20:25:45.695Z,6.33
2023-04-30T20:28:16.466Z,6.20
2023-04-30T20:30:45.030Z,6.50
2023-04-30T20:33:13.653Z,7.00
2023-04-30T20:35:41.995Z,6.47
2023-04-30T20:38:10.765Z,6.57
2023-04-30T20:40:40.554Z,6.57
2023-04-30T20:43:10.221Z,6.67
2023-04-30T20:45:40.126Z,6.50
2023-04-30T20:48:09.097Z,6.63
2023-04-30T20:50:37.745Z,7.97
2023-04-30T20:53:05.867Z,7.10
2023-04-30T20:55:33.917Z,6.70
2023-04-30T20:58:03.009Z,6.43
2023-04-30T21:00:31.145Z,7.00
2023-04-30T21:03:00.769Z,7.83
2023-04-30T21:05:30.146Z,6.53
2023-04-30T21:08:01.153Z,7.10
2023-04-30T21:10:35.585Z,7.70
2023-04-30T21:13:06.088Z,8.37
2023-04-30T21:15:36.699Z,7.70
2023-04-30T21:18:06.197Z,7.63
2023-04-30T21:20:34.303Z,7.57
2023-04-30T21:23:03.273Z,7.73
2023-04-30T21:25:31.393Z,7.43
2023-04-30T21:27:59.480Z,8.73
2023-04-30T21:30:27.589Z,8.73
2023-04-30T21:32:58.885Z,8.30
2023-04-30T21:35:33.523Z,10.23
2023-04-30T21:38:01.613Z,10.17
2023-04-30T21:40:33.637Z,9.70
2023-04-30T21:43:01.843Z,10.80
2023-04-30T21:45:30.777Z,9.90
2023-04-30T21:47:59.004Z,10.83
2023-04-30T21:50:28.631Z,12.03
2023-04-30T21:52:56.706Z,12.03
2023-04-30T21:55:25.007Z,11.90
2023-04-30T21:57:53.049Z,12.17
2023-04-30T22:00:21.420Z,12.63
2023-04-30T22:02:49.699Z,11.97
2023-04-30T22:05:18.975Z,12.93
2023-04-30T22:07:48.487Z,12.63
2023-04-30T22:10:16.592Z,12.23
2023-04-30T22:12:47.352Z,12.00
2023-04-30T22:15:16.609Z,13.00
2023-04-30T22:17:46.248Z,12.87
2023-04-30T22:20:14.775Z,14.10
2023-04-30T22:22:42.958Z,14.43
2023-04-30T22:25:12.499Z,14.13
2023-04-30T22:27:40.609Z,12.37
2023-04-30T22:30:09.493Z,13.43
2023-04-30T22:32:38.660Z,13.47
2023-04-30T22:35:08.149Z,14.70
2023-04-30T22:37:38.607Z,14.67
2023-04-30T22:40:08.183Z,14.40
2023-04-30T22:42:37.767Z,13.70
2023-04-30T22:45:06.857Z,14.77
2023-04-30T22:47:35.518Z,14.87
2023-04-30T22:50:04.846Z,13.40
2023-04-30T22:52:33.257Z,12.33
2023-04-30T22:55:01.802Z,14.77
2023-04-30T22:57:29.918Z,14.70
2023-04-30T22:59:59.358Z,14.50
2023-04-30T23:02:28.796Z,15.60
2023-04-30T23:04:56.977Z,16.67
2023-04-30T23:07:25.128Z,15.30
2023-04-30T23:09:53.436Z,16.00
2023-04-30T23:12:22.509Z,15.20
2023-04-30T23:14:50.913Z,15.13
2023-04-30T23:17:20.662Z,15.70
2023-04-30T23:19:48.777Z,15.37
2023-04-30T23:22:17.073Z,15.57
2023-04-30T23:24:45.727Z,15.67
2023-04-30T23:27:13.885Z,16.67
2023-04-30T23:29:42.965Z,15.30
2023-04-30T23:32:11.286Z,15.60
2023-04-30T23:34:40.752Z,15.70
2023-04-30T23:37:08.829Z,15.30
2023-04-30T23:39:36.910Z,15.50
2023-04-30T23:42:05.097Z,16.50
2023-04-30T23:44:33.206Z,16.20
2023-04-30T23:47:01.859Z,17.10
2023-04-30T23:49:29.932Z,15.97
2023-04-30T23:51:59.433Z,17.27
2023-04-30T23:54:27.581Z,15.97
2023-04-30T23:56:55.649Z,16.70
2023-04-30T23:59:25.760Z,16.27
